Time;durP1;ratioP1;P1;durP2;ratioP2;P2;SDS_P1;SDS_P2;PMS_P1;PMS_P2;Temp;Humidity;BMP_temperature;BMP_pressure;BME280_temperature;BME280_humidity;BME280_pressure;Samples;Min_cycle;Max_cycle;Signal;HPM_P1;HPM_P2
2022/01/04 00:02:01;;;;;;;19.58;10.07;;;;;;;6.66;58.11;92112.81;2067364;69;20159;-69
2022/01/04 00:04:27;;;;;;;21.45;10.45;;;;;;;6.59;58.26;92106.81;2063738;69;20192;-75
2022/01/04 00:06:55;;;;;;;18.63;9.70;;;;;;;6.54;58.17;92101.56;2065609;69;20155;-70
2022/01/04 00:09:21;;;;;;;18.23;9.25;;;;;;;6.62;58.06;92096.50;2061010;69;20168;-67
2022/01/04 00:14:17;;;;;;;15.07;8.10;;;;;;;6.53;58.73;92089.63;2067817;69;20152;-76
2022/01/04 00:16:47;;;;;;;21.33;8.68;;;;;;;6.44;58.45;92086.91;2064789;69;20307;-70
2022/01/04 00:19:14;;;;;;;14.10;8.20;;;;;;;6.44;58.93;92084.13;2066314;69;20141;-69
2022/01/04 00:21:39;;;;;;;16.13;8.20;;;;;;;6.49;58.48;92074.66;2066845;69;20215;-71
2022/01/04 00:24:06;;;;;;;18.00;7.78;;;;;;;6.56;58.99;92077.25;2066569;69;20169;-69
2022/01/04 00:26:34;;;;;;;13.65;6.43;;;;;;;6.66;58.32;92073.66;2064463;69;20147;-69
2022/01/04 00:29:02;;;;;;;14.18;6.45;;;;;;;6.62;58.23;92069.25;2065492;69;20188;-69
2022/01/04 00:31:27;;;;;;;11.38;6.00;;;;;;;5.88;61.04;92071.34;2066107;69;20637;-69
2022/01/04 00:33:53;;;;;;;11.65;6.13;;;;;;;6.40;59.22;92056.63;2066267;69;20181;-69
2022/01/04 00:36:19;;;;;;;10.13;5.70;;;;;;;6.42;59.39;92062.34;2067343;69;20172;-73
2022/01/04 00:38:45;;;;;;;11.70;6.00;;;;;;;6.45;58.87;92063.22;2067445;69;20149;-72
2022/01/04 00:41:10;;;;;;;12.88;6.55;;;;;;;6.36;58.85;92057.09;2065791;69;20720;-69
2022/01/04 00:43:36;;;;;;;11.10;6.07;;;;;;;6.45;58.67;92058.34;2066524;69;20145;-69
2022/01/04 00:46:04;;;;;;;10.13;6.10;;;;;;;6.55;58.99;92047.84;2067315;69;20168;-69
2022/01/04 00:50:56;;;;;;;9.00;5.03;;;;;;;6.49;58.90;92033.44;2067090;69;20214;-68
2022/01/04 00:53:22;;;;;;;10.00;4.82;;;;;;;6.48;59.07;92025.66;2066141;69;20160;-69
2022/01/04 00:55:48;;;;;;;7.80;4.80;;;;;;;6.57;58.68;92027.66;2068328;69;20602;-72
2022/01/04 00:58:15;;;;;;;7.97;4.72;;;;;;;6.60;58.46;92024.38;2065906;69;20141;-69
2022/01/04 01:00:42;;;;;;;8.07;4.43;;;;;;;6.74;58.48;92030.16;2064631;69;20232;-69
2022/01/04 01:03:09;;;;;;;6.93;4.00;;;;;;;6.67;57.94;92027.56;2067595;69;20559;-70
2022/01/04 01:05:35;;;;;;;9.52;3.30;;;;;;;6.86;57.00;92032.97;2065293;69;20225;-71
2022/01/04 01:08:02;;;;;;;11.50;5.65;;;;;;;6.81;56.76;92031.25;2066967;69;20236;-69
2022/01/04 01:13:03;;;;;;;10.07;5.35;;;;;;;6.66;57.67;92004.47;2065024;69;20259;-70
2022/01/04 01:15:29;;;;;;;8.15;3.67;;;;;;;6.80;57.21;91996.97;2067727;69;20176;-71
2022/01/04 01:17:55;;;;;;;5.78;3.10;;;;;;;6.94;56.77;91996.41;2067234;69;20160;-71
2022/01/04 01:20:21;;;;;;;6.35;3.20;;;;;;;6.98;56.42;91991.06;2064950;69;20169;-68
2022/01/04 01:22:47;;;;;;;7.70;3.75;;;;;;;6.45;57.64;91977.25;2065915;69;20184;-68
2022/01/04 01:25:14;;;;;;;9.57;4.10;;;;;;;6.61;56.92;91992.28;2066887;69;20214;-69
2022/01/04 01:27:42;;;;;;;7.20;3.70;;;;;;;6.49;58.30;91974.00;2065421;69;20156;-71
2022/01/04 01:30:10;;;;;;;6.68;3.28;;;;;;;6.52;58.01;91967.94;2065529;69;20155;-70
2022/01/04 01:32:35;;;;;;;6.05;2.90;;;;;;;6.77;56.96;91966.66;2066786;69;20207;-71
2022/01/04 01:35:02;;;;;;;6.30;2.85;;;;;;;6.94;56.01;91974.75;2066642;69;20670;-68
2022/01/04 01:37:28;;;;;;;7.63;3.50;;;;;;;6.75;56.14;91977.75;2065552;69;20236;-72
2022/01/04 01:39:54;;;;;;;6.57;3.72;;;;;;;6.73;56.49;91969.22;2067850;69;20231;-72
2022/01/04 01:42:19;;;;;;;5.95;3.80;;;;;;;6.69;57.23;91964.09;2067128;69;20157;-69
2022/01/04 01:44:46;;;;;;;5.65;3.13;;;;;;;6.74;57.06;91971.41;2064373;69;20631;-69
2022/01/04 01:47:12;;;;;;;5.15;3.30;;;;;;;6.85;55.00;91970.69;2066904;69;20154;-70
2022/01/04 01:49:37;;;;;;;8.13;3.28;;;;;;;6.65;56.42;91965.91;2067822;69;20149;-68
2022/01/04 01:52:04;;;;;;;6.57;3.15;;;;;;;6.67;57.06;91949.97;2066518;69;20156;-69
2022/01/04 01:54:29;;;;;;;6.78;3.03;;;;;;;6.90;55.93;91946.50;2065713;69;20161;-68
2022/01/04 01:56:55;;;;;;;5.40;3.17;;;;;;;6.99;55.73;91933.75;2066495;69;20141;-71
2022/01/04 01:59:21;;;;;;;7.80;3.72;;;;;;;6.74;55.85;91911.94;2063851;69;20148;-68
2022/01/04 02:01:46;;;;;;;5.68;3.58;;;;;;;6.35;57.86;91909.53;2065149;69;20276;-69
2022/01/04 02:04:12;;;;;;;8.32;3.85;;;;;;;6.55;57.43;91910.06;2069007;69;20174;-69
2022/01/04 02:06:38;;;;;;;7.03;3.90;;;;;;;6.51;57.42;91904.25;2072869;69;20605;-70
2022/01/04 02:09:04;;;;;;;5.93;3.47;;;;;;;6.49;57.43;91890.84;2074729;69;20160;-69
2022/01/04 02:11:31;;;;;;;6.30;3.50;;;;;;;6.71;56.64;91890.78;2068576;69;20148;-68
2022/01/04 02:14:01;;;;;;;6.90;3.50;;;;;;;6.71;57.38;91891.50;2071881;69;20679;-71
2022/01/04 02:16:30;;;;;;;7.38;3.97;;;;;;;6.17;58.75;91897.91;2073054;69;20187;-74
2022/01/04 02:19:08;;;;;;;8.40;4.10;;;;;;;6.18;59.12;91902.16;2073308;69;20171;-73
2022/01/04 02:21:35;;;;;;;7.88;4.13;;;;;;;6.46;58.19;91899.69;2071608;69;20152;-68
2022/01/04 02:24:02;;;;;;;7.22;3.83;;;;;;;6.39;58.76;91892.28;2071102;69;20593;-71
2022/01/04 02:26:32;;;;;;;6.80;3.80;;;;;;;6.23;58.98;91892.72;2072597;69;20338;-71
2022/01/04 02:28:57;;;;;;;7.38;3.60;;;;;;;6.46;58.05;91883.69;2072352;69;20278;-68
2022/01/04 02:31:23;;;;;;;6.25;3.63;;;;;;;6.17;59.01;91878.34;2071466;69;20167;-68
2022/01/04 02:33:49;;;;;;;6.72;3.97;;;;;;;6.30;59.01;91879.84;2071375;69;20227;-69
2022/01/04 02:36:14;;;;;;;6.63;3.83;;;;;;;6.33;58.80;91876.59;2072750;69;20168;-67
2022/01/04 02:38:42;;;;;;;6.90;3.85;;;;;;;6.35;59.04;91879.50;2072117;69;20209;-67
2022/01/04 02:41:08;;;;;;;6.13;3.55;;;;;;;6.51;58.02;91865.09;2073980;69;20259;-71
2022/01/04 02:43:33;;;;;;;6.03;3.53;;;;;;;6.70;57.56;91858.56;2071775;69;20179;-70
2022/01/04 02:45:59;;;;;;;7.75;3.20;;;;;;;6.69;58.12;91857.81;2073264;69;20140;-68
2022/01/04 02:48:25;;;;;;;7.05;3.67;;;;;;;5.95;60.43;91860.91;2072754;69;20297;-74
2022/01/04 02:50:51;;;;;;;8.68;3.85;;;;;;;6.20;59.74;91851.28;2073530;69;20167;-68
2022/01/04 02:53:17;;;;;;;6.05;3.58;;;;;;;6.42;59.08;91846.34;2067814;69;20230;-69
2022/01/04 02:55:43;;;;;;;7.72;4.28;;;;;;;6.31;59.50;91840.13;2073363;69;20156;-70
2022/01/04 02:58:09;;;;;;;7.13;3.80;;;;;;;6.49;58.88;91837.00;2071096;69;20160;-69
2022/01/04 03:00:35;;;;;;;6.18;3.35;;;;;;;6.26;59.47;91844.00;2071311;69;20209;-67
2022/01/04 03:03:00;;;;;;;5.70;3.50;;;;;;;6.46;58.87;91824.97;2071109;69;20174;-68
2022/01/04 03:05:29;;;;;;;6.10;3.50;;;;;;;6.60;59.05;91814.66;2073464;69;20148;-67
2022/01/04 03:07:54;;;;;;;6.22;3.80;;;;;;;6.57;58.70;91810.25;2071872;69;20561;-68
2022/01/04 03:10:20;;;;;;;7.47;3.97;;;;;;;6.49;59.19;91797.84;2073064;69;20597;-67
2022/01/04 03:12:46;;;;;;;5.97;3.53;;;;;;;6.34;58.99;91793.47;2072801;69;20552;-68
2022/01/04 03:15:12;;;;;;;6.88;4.18;;;;;;;6.13;60.11;91807.50;2071748;69;20140;-71
2022/01/04 03:17:38;;;;;;;6.00;3.80;;;;;;;6.29;60.15;91789.69;2073622;69;20722;-72
2022/01/04 03:20:05;;;;;;;6.78;3.88;;;;;;;6.57;58.75;91784.38;2071630;69;20227;-70
2022/01/04 03:22:30;;;;;;;6.63;4.03;;;;;;;6.61;58.31;91781.81;2072768;69;20218;-68
2022/01/04 03:24:56;;;;;;;7.72;4.13;;;;;;;6.52;58.73;91772.22;2073079;69;20317;-69
2022/01/04 03:27:22;;;;;;;6.88;3.15;;;;;;;6.73;57.88;91779.72;2071545;69;20148;-71
2022/01/04 03:29:47;;;;;;;4.63;2.70;;;;;;;6.76;57.66;91770.13;2074137;69;20277;-73
2022/01/04 03:32:13;;;;;;;7.05;2.80;;;;;;;6.71;58.14;91767.72;2073278;69;20180;-72
2022/01/04 03:34:39;;;;;;;6.28;3.60;;;;;;;6.45;59.13;91761.97;2069200;69;20147;-72
2022/01/04 03:37:04;;;;;;;15.15;6.93;;;;;;;6.26;59.92;91768.53;2072157;69;20137;-69
2022/01/04 03:39:30;;;;;;;17.15;8.57;;;;;;;6.47;58.93;91776.09;2072349;69;20148;-69
2022/01/04 03:41:55;;;;;;;24.17;10.90;;;;;;;6.60;58.88;91746.81;2073249;69;20152;-68
2022/01/04 03:44:21;;;;;;;19.17;9.65;;;;;;;6.53;59.03;91745.69;2074133;69;20498;-72
2022/01/04 03:46:50;;;;;;;21.42;10.10;;;;;;;6.57;58.59;91751.53;2071121;69;20608;-75
2022/01/04 03:49:15;;;;;;;19.27;8.32;;;;;;;6.59;58.67;91745.31;2069567;69;20691;-69
2022/01/04 03:51:42;;;;;;;18.27;9.20;;;;;;;6.56;59.11;91741.69;2070674;69;20176;-71
2022/01/04 03:54:07;;;;;;;14.07;6.70;;;;;;;6.47;59.41;91739.75;2071246;69;20192;-71
2022/01/04 03:56:33;;;;;;;12.77;5.70;;;;;;;6.43;59.66;91728.31;2073298;69;20168;-69
2022/01/04 03:58:59;;;;;;;8.77;5.18;;;;;;;6.47;59.05;91725.78;2070820;69;20151;-74
2022/01/04 04:01:24;;;;;;;7.68;4.38;;;;;;;6.68;58.54;91722.09;2073735;69;20204;-68
2022/01/04 04:03:50;;;;;;;9.98;5.20;;;;;;;6.57;58.92;91714.47;2072333;69;20203;-69
2022/01/04 04:06:16;;;;;;;9.13;4.82;;;;;;;6.26;60.21;91723.09;2073600;69;20890;-67
2022/01/04 04:08:41;;;;;;;9.73;4.80;;;;;;;6.24;60.06;91715.31;2074319;69;20156;-68
2022/01/04 04:11:07;;;;;;;9.57;5.18;;;;;;;6.47;59.80;91708.28;2074337;69;20191;-69
2022/01/04 04:13:32;;;;;;;9.75;5.00;;;;;;;6.47;59.69;91711.06;2074149;69;20164;-68
2022/01/04 04:15:58;;;;;;;9.65;4.18;;;;;;;6.50;59.55;91709.84;2072486;69;20159;-71
2022/01/04 04:18:23;;;;;;;8.43;4.38;;;;;;;6.30;60.00;91700.97;2073044;69;20218;-69
2022/01/04 04:20:49;;;;;;;8.30;4.80;;;;;;;6.32;59.88;91687.84;2073675;69;20156;-71
2022/01/04 04:23:15;;;;;;;11.02;5.40;;;;;;;6.47;59.28;91683.84;2069210;69;20136;-70
2022/01/04 04:25:40;;;;;;;6.35;3.85;;;;;;;6.42;59.64;91682.13;2071596;69;20160;-69
2022/01/04 04:28:06;;;;;;;5.97;3.90;;;;;;;6.64;58.38;91688.28;2068411;69;20158;-70
2022/01/04 04:30:32;;;;;;;7.57;4.00;;;;;;;6.60;58.71;91683.22;2073416;69;20179;-72
2022/01/04 04:32:58;;;;;;;8.43;3.85;;;;;;;6.67;58.66;91680.75;2068502;69;20148;-68
2022/01/04 04:35:24;;;;;;;6.85;4.00;;;;;;;6.68;58.36;91682.94;2074433;69;20152;-71
2022/01/04 04:37:49;;;;;;;8.10;4.82;;;;;;;6.64;58.97;91657.53;2073650;69;20234;-68
2022/01/04 04:40:15;;;;;;;6.47;3.60;;;;;;;6.76;57.65;91663.84;2073214;69;20128;-68
2022/01/04 04:42:41;;;;;;;7.40;4.32;;;;;;;6.12;60.19;91667.06;2072632;69;20573;-67
2022/01/04 04:45:08;;;;;;;7.82;4.68;;;;;;;6.34;59.56;91674.00;2072280;69;20239;-68
2022/01/04 04:47:34;;;;;;;7.68;4.47;;;;;;;6.28;60.31;91664.53;2074005;69;20235;-68
2022/01/04 04:50:00;;;;;;;7.25;4.55;;;;;;;6.27;59.68;91660.97;2071652;69;20148;-68
2022/01/04 04:52:25;;;;;;;8.05;5.00;;;;;;;6.29;60.34;91663.19;2072074;69;20598;-69
2022/01/04 04:54:51;;;;;;;8.32;4.80;;;;;;;6.48;59.56;91662.91;2073276;69;20167;-70
2022/01/04 04:57:17;;;;;;;7.43;4.00;;;;;;;6.58;59.37;91638.34;2072743;69;20183;-73
2022/01/04 04:59:42;;;;;;;7.43;4.70;;;;;;;6.31;60.19;91649.31;2071724;69;20574;-76
2022/01/04 05:02:08;;;;;;;13.73;9.00;;;;;;;6.39;60.21;91643.50;2068910;69;20155;-76
2022/01/04 05:04:37;;;;;;;11.73;6.43;;;;;;;6.48;59.76;91620.97;2073624;69;20688;-71
2022/01/04 05:07:03;;;;;;;10.10;6.55;;;;;;;6.51;59.43;91630.94;2073161;69;20152;-71
2022/01/04 05:09:28;;;;;;;10.43;6.00;;;;;;;6.44;59.51;91637.50;2072488;69;20152;-69
2022/01/04 05:11:54;;;;;;;14.35;6.90;;;;;;;6.47;59.62;91618.81;2073648;69;20159;-68
2022/01/04 05:14:20;;;;;;;9.73;6.30;;;;;;;6.51;59.68;91605.78;2072194;69;20143;-68
2022/01/04 05:16:46;;;;;;;10.05;5.70;;;;;;;6.47;59.85;91599.25;2073714;69;20611;-68
2022/01/04 05:19:15;;;;;;;6.30;3.38;;;;;;;6.62;58.56;91585.44;2073070;69;20693;-72
2022/01/04 05:21:40;;;;;;;3.70;2.30;;;;;;;6.70;58.30;91590.06;2073117;69;20144;-69
2022/01/04 05:24:06;;;;;;;6.60;4.00;;;;;;;6.10;60.11;91597.09;2074270;69;20185;-69
2022/01/04 05:26:35;;;;;;;11.30;5.35;;;;;;;6.46;59.58;91597.75;2072062;69;20255;-70
2022/01/04 05:29:02;;;;;;;9.63;5.82;;;;;;;6.49;59.23;91576.97;2073615;69;20183;-68
2022/01/04 05:31:27;;;;;;;18.45;8.43;;;;;;;6.27;60.20;91588.31;2069656;69;20215;-75
2022/01/04 05:33:53;;;;;;;17.75;8.43;;;;;;;6.39;60.03;91582.72;2073424;69;20282;-70
2022/01/04 05:36:19;;;;;;;13.52;7.68;;;;;;;6.48;59.71;91572.72;2073621;69;20163;-72
2022/01/04 05:38:47;;;;;;;13.82;6.85;;;;;;;6.22;60.53;91581.03;2072401;69;20156;-68
2022/01/04 05:41:12;;;;;;;13.98;6.75;;;;;;;6.34;59.93;91572.63;2073840;69;20617;-69
2022/01/04 05:43:38;;;;;;;10.98;6.68;;;;;;;6.28;60.10;91573.03;2074339;69;20136;-68
2022/01/04 05:46:04;;;;;;;11.48;6.70;;;;;;;6.10;60.91;91572.69;2074138;69;20602;-68
2022/01/04 05:48:29;;;;;;;11.25;6.40;;;;;;;5.93;61.16;91570.25;2073548;69;20180;-68
2022/01/04 05:50:55;;;;;;;11.25;5.70;;;;;;;6.24;60.58;91563.69;2071494;69;20150;-72
2022/01/04 05:53:21;;;;;;;12.48;6.55;;;;;;;6.23;60.24;91567.78;2071632;69;20178;-70
2022/01/04 05:55:46;;;;;;;11.18;5.38;;;;;;;5.88;61.69;91565.75;2074246;69;20159;-69
2022/01/04 05:58:12;;;;;;;9.82;5.80;;;;;;;6.19;60.82;91573.16;2072372;69;20221;-75
2022/01/04 06:00:38;;;;;;;9.80;5.20;;;;;;;6.15;60.75;91564.53;2073350;69;20164;-71
2022/01/04 06:03:04;;;;;;;10.75;5.22;;;;;;;6.26;60.13;91555.41;2073634;69;20583;-71
2022/01/04 06:05:30;;;;;;;9.45;5.10;;;;;;;5.71;61.99;91564.03;2072293;69;20227;-69
2022/01/04 06:07:56;;;;;;;8.07;4.40;;;;;;;5.85;61.81;91561.38;2074205;69;20143;-68
2022/01/04 06:10:23;;;;;;;9.23;4.60;;;;;;;6.15;60.93;91558.94;2072576;69;20210;-68
2022/01/04 06:15:15;;;;;;;9.32;5.28;;;;;;;6.15;61.03;91553.38;2073602;69;20152;-68
2022/01/04 06:17:43;;;;;;;8.55;5.00;;;;;;;6.08;60.58;91555.06;2072365;69;20647;-69
2022/01/04 06:20:11;;;;;;;10.63;5.07;;;;;;;6.17;60.29;91559.78;2073968;69;20231;-70
2022/01/04 06:22:37;;;;;;;8.68;5.43;;;;;;;6.28;59.95;91572.28;2072002;69;20268;-68
2022/01/04 06:25:05;;;;;;;11.35;5.60;;;;;;;6.32;60.03;91567.66;2071706;69;20597;-68
2022/01/04 06:27:31;;;;;;;9.48;5.20;;;;;;;6.30;60.00;91541.66;2074403;69;20215;-72
2022/01/04 06:29:57;;;;;;;9.80;5.82;;;;;;;6.15;60.83;91548.50;2072608;69;20155;-76
2022/01/04 06:32:23;;;;;;;12.00;5.82;;;;;;;6.29;60.11;91540.94;2073442;69;20162;-68
2022/01/04 06:34:49;;;;;;;17.02;8.40;;;;;;;6.28;60.08;91525.50;2074734;69;20151;-71
2022/01/04 06:37:15;;;;;;;16.00;7.07;;;;;;;6.13;60.81;91539.25;2069910;69;20152;-72
2022/01/04 06:39:41;;;;;;;13.45;6.32;;;;;;;6.29;60.22;91540.22;2072645;69;20148;-74
2022/01/04 06:42:07;;;;;;;12.63;6.38;;;;;;;6.19;61.28;91545.94;2068402;69;20217;-72
2022/01/04 06:44:33;;;;;;;11.38;6.70;;;;;;;6.25;60.62;91537.19;2074289;69;20315;-70
2022/01/04 06:46:59;;;;;;;10.02;5.82;;;;;;;6.28;61.26;91539.47;2071859;69;20141;-71
2022/01/04 06:49:25;;;;;;;14.20;7.22;;;;;;;6.41;59.93;91526.91;2073351;69;20577;-71
2022/01/04 06:51:50;;;;;;;11.70;7.15;;;;;;;6.30;60.30;91522.81;2073286;69;20305;-68
2022/01/04 06:54:18;;;;;;;61.25;24.25;;;;;;;5.70;62.21;91534.66;2071610;69;20183;-68
2022/01/04 06:56:44;;;;;;;32.78;14.77;;;;;;;5.83;62.60;91536.84;2073807;69;20154;-69
2022/01/04 06:59:11;;;;;;;52.38;24.02;;;;;;;6.07;61.83;91531.97;2072458;69;20227;-69
2022/01/04 07:01:37;;;;;;;37.72;18.48;;;;;;;5.97;61.89;91537.00;2074179;69;20155;-73
2022/01/04 07:04:04;;;;;;;34.55;16.00;;;;;;;6.01;61.83;91537.22;2068040;69;20148;-74
2022/01/04 07:06:30;;;;;;;30.52;13.57;;;;;;;6.14;61.22;91535.13;2069696;69;20152;-70
2022/01/04 07:08:55;;;;;;;24.73;12.65;;;;;;;6.18;61.42;91529.78;2067868;69;20171;-69
2022/01/04 07:11:21;;;;;;;27.77;13.73;;;;;;;6.23;61.43;91521.03;2068965;69;20235;-72
2022/01/04 07:13:46;;;;;;;32.33;15.98;;;;;;;6.31;60.99;91520.75;2071149;69;20235;-71
2022/01/04 07:16:12;;;;;;;30.58;15.05;;;;;;;6.04;61.72;91513.63;2069856;69;20141;-74
2022/01/04 07:18:38;;;;;;;38.55;19.83;;;;;;;5.86;62.52;91521.69;2068958;69;20636;-73
2022/01/04 07:21:03;;;;;;;29.30;16.20;;;;;;;5.91;62.46;91531.03;2069800;69;20136;-72
2022/01/04 07:23:29;;;;;;;30.08;17.10;;;;;;;6.18;61.74;91513.00;2068147;69;20164;-68
2022/01/04 07:25:55;;;;;;;31.13;16.65;;;;;;;6.01;62.41;91525.31;2069865;69;20503;-68
2022/01/04 07:28:22;;;;;;;24.85;13.35;;;;;;;6.03;61.99;91545.00;2068947;69;20253;-71
2022/01/04 07:30:47;;;;;;;24.58;13.30;;;;;;;6.18;61.79;91541.66;2071180;69;20165;-70
2022/01/04 07:33:14;;;;;;;20.55;10.45;;;;;;;6.12;61.65;91549.72;2069619;69;20183;-71
2022/01/04 07:35:40;;;;;;;23.15;10.90;;;;;;;6.21;61.15;91551.63;2070117;69;20205;-70
2022/01/04 07:38:06;;;;;;;23.98;12.27;;;;;;;6.01;61.86;91548.41;2069448;69;20180;-73
2022/01/04 07:40:31;;;;;;;22.35;12.57;;;;;;;6.28;61.71;91528.31;2070225;69;20145;-73
2022/01/04 07:43:00;;;;;;;28.63;15.02;;;;;;;6.28;61.24;91530.38;2068654;69;20145;-70
2022/01/04 07:45:30;;;;;;;23.30;13.45;;;;;;;6.27;61.37;91534.50;2070962;69;20253;-70
2022/01/04 07:47:56;;;;;;;23.00;12.68;;;;;;;6.48;60.79;91547.56;2070997;69;20160;-70
2022/01/04 07:50:23;;;;;;;34.33;16.75;;;;;;;5.79;64.23;91542.19;2068167;69;20222;-71
2022/01/04 07:52:48;;;;;;;32.65;16.83;;;;;;;5.90;63.65;91551.91;2069864;69;20247;-71
2022/01/04 07:55:14;;;;;;;31.58;16.25;;;;;;;6.13;62.60;91559.53;2069231;69;20606;-70
2022/01/04 07:57:41;;;;;;;34.35;18.55;;;;;;;5.83;63.80;91558.47;2068299;69;20168;-73
2022/01/04 08:00:09;;;;;;;35.00;19.73;;;;;;;6.04;63.79;91569.50;2069915;69;20168;-70
2022/01/04 08:02:40;;;;;;;33.25;18.35;;;;;;;6.20;63.17;91575.34;2069726;69;20192;-70
2022/01/04 08:05:08;;;;;;;33.20;18.33;;;;;;;6.42;62.64;91561.22;2073695;69;20155;-69
2022/01/04 08:07:34;;;;;;;32.78;15.88;;;;;;;6.46;62.38;91553.78;2075563;69;20318;-69
2022/01/04 08:09:59;;;;;;;33.97;19.73;;;;;;;5.83;64.62;91547.31;2070808;69;20144;-72
2022/01/04 08:12:25;;;;;;;33.67;19.27;;;;;;;6.02;64.14;91563.09;2072400;69;20587;-76
2022/01/04 08:14:51;;;;;;;35.85;19.58;;;;;;;6.36;63.15;91550.38;2075024;69;20152;-72
2022/01/04 08:17:17;;;;;;;33.08;17.02;;;;;;;6.54;62.40;91554.22;2074842;69;20144;-75
2022/01/04 08:19:42;;;;;;;32.88;16.63;;;;;;;6.68;62.35;91547.97;2074620;69;20682;-78
2022/01/04 08:22:08;;;;;;;33.95;19.95;;;;;;;6.68;62.73;91551.50;2075155;69;20172;-70
2022/01/04 08:24:33;;;;;;;32.88;18.48;;;;;;;6.52;63.37;91542.94;2073737;69;20209;-72
2022/01/04 08:27:00;;;;;;;28.90;16.48;;;;;;;6.67;62.49;91546.53;2074199;69;20494;-70
2022/01/04 08:29:26;;;;;;;28.15;15.80;;;;;;;6.61;62.88;91527.34;2072146;69;20144;-73
2022/01/04 08:31:52;;;;;;;24.70;13.73;;;;;;;6.80;62.22;91538.19;2072539;69;20518;-71
2022/01/04 08:34:17;;;;;;;30.35;14.25;;;;;;;6.88;62.27;91535.88;2072143;69;20283;-79
2022/01/04 08:36:43;;;;;;;22.23;15.18;;;;;;;6.96;60.70;91526.44;2072455;69;20159;-83
2022/01/04 08:39:14;;;;;;;4.80;3.13;;;;;;;7.09;59.10;91514.56;2074193;69;20172;-74
2022/01/04 08:41:50;;;;;;;4.35;2.30;;;;;;;7.31;58.38;91509.44;2073426;69;20547;-83
2022/01/04 08:44:16;;;;;;;6.50;2.45;;;;;;;7.37;58.32;91501.38;2071475;69;20163;-76
2022/01/04 08:46:41;;;;;;;38.33;14.23;;;;;;;7.32;58.54;91491.31;2067306;69;20671;-77
2022/01/04 08:49:07;;;;;;;23.33;10.45;;;;;;;7.26;57.76;91488.19;2070870;69;20207;-80
2022/01/04 08:51:34;;;;;;;7.13;3.40;;;;;;;7.43;57.10;91493.31;2071651;69;20636;-77
2022/01/04 08:54:00;;;;;;;5.68;2.50;;;;;;;7.60;56.94;91494.88;2071826;69;20238;-78
2022/01/04 08:56:26;;;;;;;6.80;3.30;;;;;;;7.66;56.99;91486.06;2071890;69;20166;-70
2022/01/04 08:58:53;;;;;;;8.57;5.93;;;;;;;7.54;57.51;91484.06;2071998;69;20148;-75
2022/01/04 09:01:18;;;;;;;8.65;5.32;;;;;;;7.61;57.59;91499.13;2072039;69;20237;-70
2022/01/04 09:03:44;;;;;;;11.18;5.25;;;;;;;7.67;57.46;91495.91;2071772;69;20148;-73
2022/01/04 09:06:13;;;;;;;10.80;6.00;;;;;;;7.77;57.33;91490.84;2071868;69;20152;-72
2022/01/04 09:08:39;;;;;;;11.90;5.80;;;;;;;8.05;57.16;91475.47;2072029;69;20186;-72
2022/01/04 09:11:05;;;;;;;11.20;5.93;;;;;;;8.21;56.82;91464.34;2068561;69;20234;-75
2022/01/04 09:13:36;;;;;;;9.65;5.22;;;;;;;8.51;56.88;91473.53;2071914;69;20261;-70
2022/01/04 09:18:48;;;;;;;7.50;4.30;;;;;;;8.66;56.34;91463.75;2071853;69;20132;-73
2022/01/04 09:21:19;;;;;;;18.13;8.02;;;;;;;8.72;55.87;91461.22;2071761;69;20209;-74
2022/01/04 09:23:47;;;;;;;18.05;7.70;;;;;;;8.97;55.73;91477.09;2072002;69;20621;-82
2022/01/04 09:26:14;;;;;;;9.15;4.70;;;;;;;9.07;54.83;91479.66;2071827;69;20148;-72
2022/01/04 09:28:42;;;;;;;7.95;4.50;;;;;;;9.33;53.32;91486.50;2071928;69;20140;-70
2022/01/04 09:31:08;;;;;;;7.40;3.60;;;;;;;9.52;53.65;91479.59;2071998;69;20229;-70
2022/01/04 09:33:35;;;;;;;9.40;4.68;;;;;;;9.71;53.63;91483.97;2071992;69;20243;-70
2022/01/04 09:36:01;;;;;;;14.02;6.72;;;;;;;9.58;55.02;91448.28;2071531;69;20156;-69
2022/01/04 09:38:26;;;;;;;13.13;7.18;;;;;;;9.31;54.30;91458.31;2071606;69;20241;-69
2022/01/04 09:40:54;;;;;;;17.05;7.90;;;;;;;9.66;54.53;91465.47;2071818;69;20645;-69
2022/01/04 09:43:20;;;;;;;13.93;5.57;;;;;;;9.77;53.26;91447.72;2071804;69;20152;-69
2022/01/04 09:45:47;;;;;;;13.20;7.50;;;;;;;9.65;53.48;91470.38;2071804;69;20564;-69
2022/01/04 09:48:14;;;;;;;16.75;10.25;;;;;;;10.21;54.72;91465.03;2071750;69;20560;-69
2022/01/04 09:50:41;;;;;;;14.60;9.18;;;;;;;10.18;53.72;91460.69;2071653;69;20567;-70
2022/01/04 09:53:09;;;;;;;14.48;8.30;;;;;;;10.43;53.09;91457.53;2071798;69;20737;-71
2022/01/04 09:55:38;;;;;;;15.15;8.75;;;;;;;10.50;52.51;91469.06;2071752;69;20179;-74
2022/01/04 09:58:04;;;;;;;13.82;8.25;;;;;;;10.52;51.98;91466.31;2068462;69;20156;-71
2022/01/04 10:00:30;;;;;;;15.50;8.95;;;;;;;10.71;51.89;91462.16;2071659;69;20140;-72
2022/01/04 10:03:26;;;;;;;13.77;7.32;;;;;;;10.16;51.76;91452.16;2071773;69;20148;-69
2022/01/04 10:06:15;;;;;;;11.65;7.13;;;;;;;10.66;51.87;91444.38;2071733;69;20167;-70
2022/01/04 10:08:52;;;;;;;12.30;6.88;;;;;;;10.84;51.29;91435.94;2071797;69;20180;-69
2022/01/04 10:11:37;;;;;;;11.90;5.90;;;;;;;10.75;50.04;91432.09;2071899;69;20162;-73
2022/01/04 10:14:28;;;;;;;12.15;6.70;;;;;;;11.31;50.83;91413.09;2071719;69;20185;-71
2022/01/04 10:16:59;;;;;;;10.50;5.95;;;;;;;11.54;48.50;91416.75;2069932;69;20679;-74
2022/01/04 10:19:30;;;;;;;14.55;5.60;;;;;;;11.83;50.01;91405.16;2071778;69;20140;-69
2022/01/04 10:22:16;;;;;;;8.50;5.15;;;;;;;11.81;48.27;91399.41;2071739;69;20163;-75
2022/01/04 10:24:44;;;;;;;13.35;6.00;;;;;;;11.98;49.06;91388.75;2071818;69;20160;-74
2022/01/04 10:27:29;;;;;;;14.18;7.35;;;;;;;12.33;48.04;91397.00;2071771;69;20152;-73
2022/01/04 10:30:22;;;;;;;12.43;7.22;;;;;;;12.70;46.55;91389.72;2071763;69;20156;-74
2022/01/04 10:32:53;;;;;;;8.55;6.22;;;;;;;13.53;46.63;91391.56;2071852;69;20133;-76
2022/01/04 10:35:28;;;;;;;8.52;4.20;;;;;;;13.21;44.42;91386.38;2071537;69;20602;-73
2022/01/04 10:37:55;;;;;;;11.27;5.25;;;;;;;13.55;45.43;91397.25;2071821;69;20153;-73
2022/01/04 10:40:22;;;;;;;8.52;5.03;;;;;;;13.60;44.83;91362.06;2071639;69;20228;-72
2022/01/04 10:42:48;;;;;;;9.75;4.63;;;;;;;14.11;44.44;91362.72;2071692;69;20164;-75
2022/01/04 10:45:31;;;;;;;11.48;5.00;;;;;;;13.58;42.37;91364.13;2071792;69;20137;-77
2022/01/04 10:48:09;;;;;;;;;;;;;;;13.67;42.60;91362.97;2071966;69;20158;-73
2022/01/04 10:50:36;;;;;;;8.57;3.97;;;;;;;14.06;40.89;91384.53;2071585;69;20051;-71
2022/01/04 10:53:03;;;;;;;15.85;6.18;;;;;;;14.60;41.56;91386.66;2068334;69;20155;-70
2022/01/04 10:55:36;;;;;;;11.80;5.78;;;;;;;14.05;41.37;91382.38;2071587;69;20581;-71
2022/01/04 10:58:03;;;;;;;;;;;;;;;14.10;42.53;91366.97;2071848;69;20148;-70
2022/01/04 11:00:29;;;;;;;15.88;7.28;;;;;;;13.98;41.81;91361.72;2071631;69;20060;-71
2022/01/04 11:02:57;;;;;;;13.30;6.70;;;;;;;14.20;42.33;91355.91;2071723;69;20179;-71
2022/01/04 11:05:24;;;;;;;10.45;6.18;;;;;;;15.36;42.68;91357.97;2071433;69;20147;-71
2022/01/04 11:07:57;;;;;;;9.63;6.55;;;;;;;14.18;41.85;91336.03;2071619;69;20194;-70
2022/01/04 11:10:24;;;;;;;12.00;6.38;;;;;;;15.54;40.16;91324.34;2071731;69;20579;-71
2022/01/04 11:12:52;;;;;;;11.38;6.70;;;;;;;14.33;39.96;91318.03;2072115;69;20609;-71
2022/01/04 11:15:18;;;;;;;13.07;7.22;;;;;;;14.18;40.56;91316.94;2072200;69;20529;-71
2022/01/04 11:17:44;;;;;;;11.27;5.78;;;;;;;14.65;40.25;91314.56;2072213;69;20607;-71
2022/01/04 11:20:11;;;;;;;10.07;6.10;;;;;;;14.68;40.20;91305.44;2072002;69;20217;-71
2022/01/04 11:22:41;;;;;;;23.15;7.00;;;;;;;14.54;40.49;91318.56;2072028;69;20129;-73
2022/01/04 11:25:07;;;;;;;16.88;6.30;;;;;;;14.04;42.34;91301.72;2069020;69;20143;-71
2022/01/04 11:27:36;;;;;;;17.60;6.18;;;;;;;13.22;42.58;91317.19;2072030;69;20135;-73
2022/01/04 11:30:13;;;;;;;9.52;6.38;;;;;;;13.23;42.97;91307.31;2072007;69;20209;-73
2022/01/04 11:32:43;;;;;;;10.32;5.32;;;;;;;13.89;42.62;91309.84;2072195;69;20616;-72
2022/01/04 11:35:16;;;;;;;11.35;5.88;;;;;;;13.90;42.58;91302.09;2071969;69;20163;-72
2022/01/04 11:37:52;;;;;;;13.85;6.18;;;;;;;14.01;42.64;91306.59;2072091;69;20140;-73
2022/01/04 11:40:35;;;;;;;12.48;5.85;;;;;;;14.15;41.67;91294.94;2072161;69;20575;-72
2022/01/04 11:43:03;;;;;;;13.15;6.35;;;;;;;13.98;42.28;91296.63;2072115;69;20136;-75
2022/01/04 11:45:46;;;;;;;11.30;6.03;;;;;;;13.96;42.36;91285.25;2068622;69;20168;-72
2022/01/04 11:48:24;;;;;;;10.40;5.82;;;;;;;13.79;41.97;91286.97;2071924;69;20143;-75